sensor_id;sensor_type;location;lat;lon;timestamp;P1;durP1;ratioP1;P2;durP2;ratioP2
26977;SDS011;56314;48.088;11.642;2023-09-08T00:02:07;9.35;;;5.78;;
26977;SDS011;56314;48.088;11.642;2023-09-08T00:04:32;9.57;;;6.82;;
26977;SDS011;56314;48.088;11.642;2023-09-08T00:06:58;9.98;;;6.70;;
26977;SDS011;56314;48.088;11.642;2023-09-08T00:09:23;7.78;;;6.45;;
26977;SDS011;56314;48.088;11.642;2023-09-08T00:11:49;10.02;;;6.40;;
26977;SDS011;56314;48.088;11.642;2023-09-08T00:14:14;8.98;;;6.68;;
26977;SDS011;56314;48.088;11.642;2023-09-08T00:16:39;13.55;;;7.32;;
26977;SDS011;56314;48.088;11.642;2023-09-08T00:19:07;8.00;;;6.22;;
26977;SDS011;56314;48.088;11.642;2023-09-08T00:21:33;11.88;;;7.00;;
26977;SDS011;56314;48.088;11.642;2023-09-08T00:23:58;9.73;;;6.70;;
26977;SDS011;56314;48.088;11.642;2023-09-08T00:26:25;9.27;;;6.97;;
26977;SDS011;56314;48.088;11.642;2023-09-08T00:28:51;8.77;;;6.35;;
26977;SDS011;56314;48.088;11.642;2023-09-08T00:31:16;8.15;;;6.25;;
26977;SDS011;56314;48.088;11.642;2023-09-08T00:33:42;10.23;;;6.70;;
26977;SDS011;56314;48.088;11.642;2023-09-08T00:36:09;8.30;;;6.43;;
26977;SDS011;56314;48.088;11.642;2023-09-08T00:38:34;8.75;;;6.85;;
26977;SDS011;56314;48.088;11.642;2023-09-08T00:41:00;8.40;;;6.80;;
26977;SDS011;56314;48.088;11.642;2023-09-08T00:43:26;12.70;;;7.65;;
26977;SDS011;56314;48.088;11.642;2023-09-08T00:45:51;14.52;;;7.35;;
26977;SDS011;56314;48.088;11.642;2023-09-08T00:48:18;10.25;;;7.05;;
26977;SDS011;56314;48.088;11.642;2023-09-08T00:50:44;11.15;;;6.85;;
26977;SDS011;56314;48.088;11.642;2023-09-08T00:53:10;8.57;;;6.05;;
26977;SDS011;56314;48.088;11.642;2023-09-08T00:55:36;9.80;;;6.80;;
26977;SDS011;56314;48.088;11.642;2023-09-08T00:58:01;9.63;;;6.60;;
26977;SDS011;56314;48.088;11.642;2023-09-08T01:00:27;6.82;;;6.05;;
26977;SDS011;56314;48.088;11.642;2023-09-08T01:02:52;7.60;;;6.47;;
26977;SDS011;56314;48.088;11.642;2023-09-08T01:05:18;10.40;;;7.13;;
26977;SDS011;56314;48.088;11.642;2023-09-08T01:07:44;8.70;;;6.75;;
26977;SDS011;56314;48.088;11.642;2023-09-08T01:10:10;10.63;;;6.78;;
26977;SDS011;56314;48.088;11.642;2023-09-08T01:12:36;9.52;;;7.03;;
26977;SDS011;56314;48.088;11.642;2023-09-08T01:15:02;10.30;;;8.23;;
26977;SDS011;56314;48.088;11.642;2023-09-08T01:17:29;11.18;;;7.32;;
26977;SDS011;56314;48.088;11.642;2023-09-08T01:19:55;9.93;;;6.80;;
26977;SDS011;56314;48.088;11.642;2023-09-08T01:22:45;9.48;;;7.65;;
26977;SDS011;56314;48.088;11.642;2023-09-08T01:25:29;12.63;;;7.10;;
26977;SDS011;56314;48.088;11.642;2023-09-08T01:27:57;12.45;;;6.50;;
26977;SDS011;56314;48.088;11.642;2023-09-08T01:30:26;9.93;;;6.75;;
26977;SDS011;56314;48.088;11.642;2023-09-08T01:32:54;8.77;;;5.93;;
26977;SDS011;56314;48.088;11.642;2023-09-08T01:35:20;11.75;;;6.72;;
26977;SDS011;56314;48.088;11.642;2023-09-08T01:37:46;10.23;;;6.93;;
26977;SDS011;56314;48.088;11.642;2023-09-08T01:40:13;11.25;;;6.82;;
26977;SDS011;56314;48.088;11.642;2023-09-08T01:42:40;9.18;;;7.00;;
26977;SDS011;56314;48.088;11.642;2023-09-08T01:45:06;9.43;;;6.97;;
26977;SDS011;56314;48.088;11.642;2023-09-08T01:47:32;12.02;;;7.00;;
26977;SDS011;56314;48.088;11.642;2023-09-08T01:49:58;9.88;;;6.35;;
26977;SDS011;56314;48.088;11.642;2023-09-08T01:52:23;10.93;;;7.30;;
26977;SDS011;56314;48.088;11.642;2023-09-08T01:54:49;8.60;;;6.40;;
26977;SDS011;56314;48.088;11.642;2023-09-08T01:57:15;12.80;;;7.68;;
26977;SDS011;56314;48.088;11.642;2023-09-08T01:59:40;9.05;;;6.57;;
26977;SDS011;56314;48.088;11.642;2023-09-08T02:02:05;9.23;;;6.75;;
26977;SDS011;56314;48.088;11.642;2023-09-08T02:04:31;8.60;;;6.07;;
26977;SDS011;56314;48.088;11.642;2023-09-08T02:06:57;11.32;;;6.68;;
26977;SDS011;56314;48.088;11.642;2023-09-08T02:09:29;7.57;;;5.72;;
26977;SDS011;56314;48.088;11.642;2023-09-08T02:11:55;10.30;;;7.07;;
26977;SDS011;56314;48.088;11.642;2023-09-08T02:14:21;9.77;;;6.97;;
26977;SDS011;56314;48.088;11.642;2023-09-08T02:16:46;8.93;;;6.75;;
26977;SDS011;56314;48.088;11.642;2023-09-08T02:19:11;8.93;;;6.50;;
26977;SDS011;56314;48.088;11.642;2023-09-08T02:21:37;9.57;;;6.43;;
26977;SDS011;56314;48.088;11.642;2023-09-08T02:24:02;8.07;;;5.93;;
26977;SDS011;56314;48.088;11.642;2023-09-08T02:26:28;9.95;;;6.47;;
26977;SDS011;56314;48.088;11.642;2023-09-08T02:28:54;10.52;;;6.40;;
26977;SDS011;56314;48.088;11.642;2023-09-08T02:31:19;13.57;;;6.32;;
26977;SDS011;56314;48.088;11.642;2023-09-08T02:33:45;12.20;;;7.32;;
26977;SDS011;56314;48.088;11.642;2023-09-08T02:36:10;10.80;;;6.38;;
26977;SDS011;56314;48.088;11.642;2023-09-08T02:38:35;8.85;;;6.20;;
26977;SDS011;56314;48.088;11.642;2023-09-08T02:41:02;10.75;;;6.32;;
26977;SDS011;56314;48.088;11.642;2023-09-08T02:43:27;7.70;;;6.18;;
26977;SDS011;56314;48.088;11.642;2023-09-08T02:45:53;9.43;;;6.15;;
26977;SDS011;56314;48.088;11.642;2023-09-08T02:48:18;11.77;;;7.07;;
26977;SDS011;56314;48.088;11.642;2023-09-08T02:50:43;10.27;;;6.60;;
26977;SDS011;56314;48.088;11.642;2023-09-08T02:53:09;8.23;;;6.15;;
26977;SDS011;56314;48.088;11.642;2023-09-08T02:55:34;7.82;;;6.40;;
26977;SDS011;56314;48.088;11.642;2023-09-08T02:58:00;9.55;;;6.75;;
26977;SDS011;56314;48.088;11.642;2023-09-08T03:00:25;8.35;;;6.35;;
26977;SDS011;56314;48.088;11.642;2023-09-08T03:02:50;7.82;;;6.28;;
26977;SDS011;56314;48.088;11.642;2023-09-08T03:05:16;9.93;;;6.55;;
26977;SDS011;56314;48.088;11.642;2023-09-08T03:07:41;10.00;;;6.82;;
26977;SDS011;56314;48.088;11.642;2023-09-08T03:10:07;9.70;;;6.75;;
26977;SDS011;56314;48.088;11.642;2023-09-08T03:12:32;8.77;;;5.82;;
26977;SDS011;56314;48.088;11.642;2023-09-08T03:14:57;10.82;;;7.72;;
26977;SDS011;56314;48.088;11.642;2023-09-08T03:17:24;8.77;;;6.50;;
26977;SDS011;56314;48.088;11.642;2023-09-08T03:19:49;10.55;;;6.05;;
26977;SDS011;56314;48.088;11.642;2023-09-08T03:22:15;10.93;;;7.03;;
26977;SDS011;56314;48.088;11.642;2023-09-08T03:24:40;6.93;;;5.97;;
26977;SDS011;56314;48.088;11.642;2023-09-08T03:27:05;11.80;;;6.03;;
26977;SDS011;56314;48.088;11.642;2023-09-08T03:29:31;8.93;;;6.13;;
26977;SDS011;56314;48.088;11.642;2023-09-08T03:31:56;7.07;;;5.75;;
26977;SDS011;56314;48.088;11.642;2023-09-08T03:34:21;11.70;;;6.47;;
26977;SDS011;56314;48.088;11.642;2023-09-08T03:36:48;11.45;;;7.18;;
26977;SDS011;56314;48.088;11.642;2023-09-08T03:39:14;8.32;;;5.88;;
26977;SDS011;56314;48.088;11.642;2023-09-08T03:41:39;9.25;;;6.63;;
26977;SDS011;56314;48.088;11.642;2023-09-08T03:44:05;7.22;;;5.97;;
26977;SDS011;56314;48.088;11.642;2023-09-08T03:46:30;9.23;;;6.70;;
26977;SDS011;56314;48.088;11.642;2023-09-08T03:48:55;8.60;;;6.60;;
26977;SDS011;56314;48.088;11.642;2023-09-08T03:51:25;9.45;;;7.07;;
26977;SDS011;56314;48.088;11.642;2023-09-08T03:53:52;10.40;;;6.63;;
26977;SDS011;56314;48.088;11.642;2023-09-08T03:56:18;8.35;;;6.35;;
26977;SDS011;56314;48.088;11.642;2023-09-08T03:58:43;8.35;;;6.32;;
26977;SDS011;56314;48.088;11.642;2023-09-08T04:01:08;10.00;;;6.60;;
26977;SDS011;56314;48.088;11.642;2023-09-08T04:03:34;11.93;;;6.72;;
26977;SDS011;56314;48.088;11.642;2023-09-08T04:05:59;9.82;;;6.00;;
26977;SDS011;56314;48.088;11.642;2023-09-08T04:08:24;10.38;;;6.78;;
26977;SDS011;56314;48.088;11.642;2023-09-08T04:10:50;9.15;;;6.47;;
26977;SDS011;56314;48.088;11.642;2023-09-08T04:13:15;9.63;;;6.88;;
26977;SDS011;56314;48.088;11.642;2023-09-08T04:15:40;9.02;;;6.78;;
26977;SDS011;56314;48.088;11.642;2023-09-08T04:18:06;7.82;;;6.18;;
26977;SDS011;56314;48.088;11.642;2023-09-08T04:20:31;7.97;;;5.80;;
26977;SDS011;56314;48.088;11.642;2023-09-08T04:22:56;9.95;;;6.75;;
26977;SDS011;56314;48.088;11.642;2023-09-08T04:25:22;8.68;;;6.13;;
26977;SDS011;56314;48.088;11.642;2023-09-08T04:27:47;9.18;;;7.03;;
26977;SDS011;56314;48.088;11.642;2023-09-08T04:30:12;9.38;;;6.90;;
26977;SDS011;56314;48.088;11.642;2023-09-08T04:32:38;9.60;;;5.82;;
26977;SDS011;56314;48.088;11.642;2023-09-08T04:35:04;10.10;;;6.47;;
26977;SDS011;56314;48.088;11.642;2023-09-08T04:37:30;9.18;;;6.25;;
26977;SDS011;56314;48.088;11.642;2023-09-08T04:39:55;8.52;;;6.68;;
26977;SDS011;56314;48.088;11.642;2023-09-08T04:42:21;10.02;;;6.45;;
26977;SDS011;56314;48.088;11.642;2023-09-08T04:44:48;10.73;;;7.55;;
26977;SDS011;56314;48.088;11.642;2023-09-08T04:47:13;10.05;;;7.20;;
26977;SDS011;56314;48.088;11.642;2023-09-08T04:49:38;9.65;;;6.90;;
26977;SDS011;56314;48.088;11.642;2023-09-08T04:52:04;9.02;;;6.82;;
26977;SDS011;56314;48.088;11.642;2023-09-08T04:54:30;10.95;;;7.05;;
26977;SDS011;56314;48.088;11.642;2023-09-08T04:56:56;11.73;;;7.55;;
26977;SDS011;56314;48.088;11.642;2023-09-08T04:59:22;8.18;;;7.05;;
26977;SDS011;56314;48.088;11.642;2023-09-08T05:01:48;9.85;;;6.53;;
26977;SDS011;56314;48.088;11.642;2023-09-08T05:04:14;8.95;;;6.97;;
26977;SDS011;56314;48.088;11.642;2023-09-08T05:06:41;9.48;;;7.65;;
26977;SDS011;56314;48.088;11.642;2023-09-08T05:09:06;10.40;;;7.75;;
26977;SDS011;56314;48.088;11.642;2023-09-08T05:11:32;10.63;;;6.80;;
26977;SDS011;56314;48.088;11.642;2023-09-08T05:13:57;8.75;;;7.25;;
26977;SDS011;56314;48.088;11.642;2023-09-08T05:16:23;10.65;;;7.13;;
26977;SDS011;56314;48.088;11.642;2023-09-08T05:19:02;10.98;;;7.20;;
26977;SDS011;56314;48.088;11.642;2023-09-08T05:21:31;12.82;;;7.88;;
26977;SDS011;56314;48.088;11.642;2023-09-08T05:23:57;12.35;;;7.47;;
26977;SDS011;56314;48.088;11.642;2023-09-08T05:26:22;11.00;;;7.20;;
26977;SDS011;56314;48.088;11.642;2023-09-08T05:28:48;8.23;;;6.50;;
26977;SDS011;56314;48.088;11.642;2023-09-08T05:31:13;9.73;;;6.65;;
26977;SDS011;56314;48.088;11.642;2023-09-08T05:33:38;10.07;;;7.18;;
26977;SDS011;56314;48.088;11.642;2023-09-08T05:36:04;9.70;;;6.68;;
26977;SDS011;56314;48.088;11.642;2023-09-08T05:38:29;8.60;;;7.15;;
26977;SDS011;56314;48.088;11.642;2023-09-08T05:40:55;8.60;;;7.05;;
26977;SDS011;56314;48.088;11.642;2023-09-08T05:43:21;11.30;;;6.43;;
26977;SDS011;56314;48.088;11.642;2023-09-08T05:45:47;8.85;;;6.60;;
26977;SDS011;56314;48.088;11.642;2023-09-08T05:48:13;9.45;;;7.07;;
26977;SDS011;56314;48.088;11.642;2023-09-08T05:50:38;10.57;;;7.50;;
26977;SDS011;56314;48.088;11.642;2023-09-08T05:53:03;10.68;;;6.90;;
26977;SDS011;56314;48.088;11.642;2023-09-08T05:55:29;9.85;;;7.60;;
26977;SDS011;56314;48.088;11.642;2023-09-08T05:57:55;9.63;;;7.55;;
26977;SDS011;56314;48.088;11.642;2023-09-08T06:00:20;9.00;;;7.38;;
26977;SDS011;56314;48.088;11.642;2023-09-08T06:02:45;10.45;;;7.07;;
26977;SDS011;56314;48.088;11.642;2023-09-08T06:05:11;9.73;;;6.45;;
26977;SDS011;56314;48.088;11.642;2023-09-08T06:07:36;9.68;;;7.22;;
26977;SDS011;56314;48.088;11.642;2023-09-08T06:10:01;9.27;;;7.50;;
26977;SDS011;56314;48.088;11.642;2023-09-08T06:12:28;9.60;;;6.53;;
26977;SDS011;56314;48.088;11.642;2023-09-08T06:14:53;11.68;;;7.32;;
26977;SDS011;56314;48.088;11.642;2023-09-08T06:17:19;9.65;;;6.95;;
26977;SDS011;56314;48.088;11.642;2023-09-08T06:19:44;9.30;;;7.10;;
26977;SDS011;56314;48.088;11.642;2023-09-08T06:22:09;8.32;;;7.35;;
26977;SDS011;56314;48.088;11.642;2023-09-08T06:24:35;10.18;;;7.72;;
26977;SDS011;56314;48.088;11.642;2023-09-08T06:27:00;10.20;;;8.02;;
26977;SDS011;56314;48.088;11.642;2023-09-08T06:29:26;12.35;;;7.93;;
26977;SDS011;56314;48.088;11.642;2023-09-08T06:31:51;12.07;;;7.63;;
26977;SDS011;56314;48.088;11.642;2023-09-08T06:34:16;10.18;;;7.38;;
26977;SDS011;56314;48.088;11.642;2023-09-08T06:36:45;10.05;;;8.57;;
26977;SDS011;56314;48.088;11.642;2023-09-08T06:39:11;10.65;;;7.38;;
26977;SDS011;56314;48.088;11.642;2023-09-08T06:41:36;9.05;;;7.40;;
26977;SDS011;56314;48.088;11.642;2023-09-08T06:44:01;11.40;;;8.77;;
26977;SDS011;56314;48.088;11.642;2023-09-08T06:46:26;8.82;;;7.75;;
26977;SDS011;56314;48.088;11.642;2023-09-08T06:48:52;13.18;;;8.25;;
26977;SDS011;56314;48.088;11.642;2023-09-08T06:51:17;10.57;;;7.60;;
26977;SDS011;56314;48.088;11.642;2023-09-08T06:53:43;10.50;;;7.93;;
26977;SDS011;56314;48.088;11.642;2023-09-08T06:56:09;13.15;;;9.63;;
26977;SDS011;56314;48.088;11.642;2023-09-08T06:58:34;12.00;;;9.23;;
26977;SDS011;56314;48.088;11.642;2023-09-08T07:01:00;9.48;;;7.63;;
26977;SDS011;56314;48.088;11.642;2023-09-08T07:03:25;12.48;;;8.52;;
26977;SDS011;56314;48.088;11.642;2023-09-08T07:05:51;10.43;;;7.60;;
26977;SDS011;56314;48.088;11.642;2023-09-08T07:08:17;13.63;;;8.15;;
26977;SDS011;56314;48.088;11.642;2023-09-08T07:10:43;10.43;;;8.02;;
26977;SDS011;56314;48.088;11.642;2023-09-08T07:13:08;17.52;;;8.40;;
26977;SDS011;56314;48.088;11.642;2023-09-08T07:15:34;10.13;;;7.43;;
26977;SDS011;56314;48.088;11.642;2023-09-08T07:17:59;12.63;;;7.40;;
26977;SDS011;56314;48.088;11.642;2023-09-08T07:20:24;15.82;;;7.78;;
26977;SDS011;56314;48.088;11.642;2023-09-08T07:22:50;11.23;;;8.55;;
26977;SDS011;56314;48.088;11.642;2023-09-08T07:25:15;12.80;;;7.63;;
26977;SDS011;56314;48.088;11.642;2023-09-08T07:27:40;10.65;;;7.78;;
26977;SDS011;56314;48.088;11.642;2023-09-08T07:30:06;8.20;;;7.13;;
26977;SDS011;56314;48.088;11.642;2023-09-08T07:32:32;9.77;;;7.45;;
26977;SDS011;56314;48.088;11.642;2023-09-08T07:34:57;9.63;;;7.47;;
26977;SDS011;56314;48.088;11.642;2023-09-08T07:37:22;9.80;;;7.25;;
26977;SDS011;56314;48.088;11.642;2023-09-08T07:39:49;11.77;;;7.60;;
26977;SDS011;56314;48.088;11.642;2023-09-08T07:42:15;10.07;;;7.65;;
26977;SDS011;56314;48.088;11.642;2023-09-08T07:44:40;11.75;;;7.78;;
26977;SDS011;56314;48.088;11.642;2023-09-08T07:47:05;8.77;;;6.95;;
26977;SDS011;56314;48.088;11.642;2023-09-08T07:49:32;10.60;;;7.40;;
26977;SDS011;56314;48.088;11.642;2023-09-08T07:51:59;11.75;;;7.70;;
26977;SDS011;56314;48.088;11.642;2023-09-08T07:54:24;11.98;;;7.68;;
26977;SDS011;56314;48.088;11.642;2023-09-08T07:56:49;12.52;;;7.53;;
26977;SDS011;56314;48.088;11.642;2023-09-08T07:59:15;14.52;;;7.35;;
26977;SDS011;56314;48.088;11.642;2023-09-08T08:01:40;11.32;;;7.75;;
26977;SDS011;56314;48.088;11.642;2023-09-08T08:04:05;11.20;;;8.10;;
26977;SDS011;56314;48.088;11.642;2023-09-08T08:06:31;12.63;;;7.40;;
26977;SDS011;56314;48.088;11.642;2023-09-08T08:08:56;9.30;;;8.00;;
26977;SDS011;56314;48.088;11.642;2023-09-08T08:11:23;12.35;;;8.00;;
26977;SDS011;56314;48.088;11.642;2023-09-08T08:13:48;10.65;;;7.47;;
26977;SDS011;56314;48.088;11.642;2023-09-08T08:16:14;8.77;;;7.10;;
26977;SDS011;56314;48.088;11.642;2023-09-08T08:18:39;9.40;;;7.68;;
26977;SDS011;56314;48.088;11.642;2023-09-08T08:21:05;9.50;;;7.00;;
26977;SDS011;56314;48.088;11.642;2023-09-08T08:23:30;11.38;;;8.00;;
26977;SDS011;56314;48.088;11.642;2023-09-08T08:25:56;7.93;;;7.07;;
26977;SDS011;56314;48.088;11.642;2023-09-08T08:28:22;11.60;;;7.00;;
26977;SDS011;56314;48.088;11.642;2023-09-08T08:30:49;8.73;;;7.03;;
26977;SDS011;56314;48.088;11.642;2023-09-08T08:33:14;14.15;;;7.32;;
26977;SDS011;56314;48.088;11.642;2023-09-08T08:35:40;10.55;;;7.20;;
26977;SDS011;56314;48.088;11.642;2023-09-08T08:38:05;7.78;;;6.90;;
26977;SDS011;56314;48.088;11.642;2023-09-08T08:40:31;8.20;;;7.30;;
26977;SDS011;56314;48.088;11.642;2023-09-08T08:42:59;9.90;;;7.50;;
26977;SDS011;56314;48.088;11.642;2023-09-08T08:45:25;9.13;;;7.20;;
26977;SDS011;56314;48.088;11.642;2023-09-08T08:47:51;7.82;;;6.63;;
26977;SDS011;56314;48.088;11.642;2023-09-08T08:50:17;8.60;;;6.68;;
26977;SDS011;56314;48.088;11.642;2023-09-08T08:52:43;7.78;;;6.97;;
26977;SDS011;56314;48.088;11.642;2023-09-08T08:55:09;8.25;;;7.18;;
26977;SDS011;56314;48.088;11.642;2023-09-08T08:57:38;8.75;;;6.90;;
26977;SDS011;56314;48.088;11.642;2023-09-08T09:00:07;8.20;;;6.70;;
26977;SDS011;56314;48.088;11.642;2023-09-08T09:02:36;9.73;;;6.82;;
26977;SDS011;56314;48.088;11.642;2023-09-08T09:05:04;8.52;;;7.25;;
26977;SDS011;56314;48.088;11.642;2023-09-08T09:07:31;7.97;;;6.40;;
26977;SDS011;56314;48.088;11.642;2023-09-08T09:09:57;7.65;;;6.35;;
26977;SDS011;56314;48.088;11.642;2023-09-08T09:12:23;7.50;;;6.53;;
26977;SDS011;56314;48.088;11.642;2023-09-08T09:14:52;6.53;;;5.88;;
26977;SDS011;56314;48.088;11.642;2023-09-08T09:17:17;12.27;;;7.18;;
26977;SDS011;56314;48.088;11.642;2023-09-08T09:19:43;7.47;;;6.22;;
26977;SDS011;56314;48.088;11.642;2023-09-08T09:22:08;7.68;;;5.93;;
26977;SDS011;56314;48.088;11.642;2023-09-08T09:24:37;8.20;;;6.90;;
26977;SDS011;56314;48.088;11.642;2023-09-08T09:27:10;7.85;;;5.40;;
26977;SDS011;56314;48.088;11.642;2023-09-08T09:29:47;7.47;;;5.65;;
26977;SDS011;56314;48.088;11.642;2023-09-08T09:32:14;6.57;;;5.90;;
26977;SDS011;56314;48.088;11.642;2023-09-08T09:34:47;7.55;;;6.07;;
26977;SDS011;56314;48.088;11.642;2023-09-08T09:39:40;10.52;;;6.20;;
26977;SDS011;56314;48.088;11.642;2023-09-08T09:42:05;5.88;;;5.18;;
26977;SDS011;56314;48.088;11.642;2023-09-08T09:44:31;7.35;;;6.65;;
26977;SDS011;56314;48.088;11.642;2023-09-08T09:46:56;5.90;;;5.35;;
26977;SDS011;56314;48.088;11.642;2023-09-08T09:49:22;7.47;;;6.55;;
26977;SDS011;56314;48.088;11.642;2023-09-08T09:51:52;7.47;;;6.00;;
26977;SDS011;56314;48.088;11.642;2023-09-08T09:54:18;7.15;;;5.38;;
26977;SDS011;56314;48.088;11.642;2023-09-08T09:56:44;8.18;;;5.55;;
26977;SDS011;56314;48.088;11.642;2023-09-08T09:59:11;8.50;;;5.50;;
26977;SDS011;56314;48.088;11.642;2023-09-08T10:01:38;5.75;;;5.20;;
26977;SDS011;56314;48.088;11.642;2023-09-08T10:04:04;5.80;;;5.20;;
26977;SDS011;56314;48.088;11.642;2023-09-08T10:06:31;6.22;;;4.97;;
26977;SDS011;56314;48.088;11.642;2023-09-08T10:08:59;5.35;;;4.82;;
26977;SDS011;56314;48.088;11.642;2023-09-08T10:11:28;6.20;;;5.43;;
26977;SDS011;56314;48.088;11.642;2023-09-08T10:13:55;5.85;;;5.25;;
26977;SDS011;56314;48.088;11.642;2023-09-08T10:16:23;5.60;;;5.07;;
26977;SDS011;56314;48.088;11.642;2023-09-08T10:18:53;5.90;;;5.20;;
26977;SDS011;56314;48.088;11.642;2023-09-08T10:21:19;5.53;;;5.03;;
26977;SDS011;56314;48.088;11.642;2023-09-08T10:23:57;5.60;;;5.10;;
26977;SDS011;56314;48.088;11.642;2023-09-08T10:26:30;7.22;;;5.65;;
26977;SDS011;56314;48.088;11.642;2023-09-08T10:28:59;5.10;;;4.47;;
26977;SDS011;56314;48.088;11.642;2023-09-08T10:31:27;6.32;;;5.72;;
26977;SDS011;56314;48.088;11.642;2023-09-08T10:33:55;7.18;;;6.47;;
26977;SDS011;56314;48.088;11.642;2023-09-08T10:36:21;8.93;;;5.45;;
26977;SDS011;56314;48.088;11.642;2023-09-08T10:38:48;6.85;;;5.28;;
26977;SDS011;56314;48.088;11.642;2023-09-08T10:46:10;7.63;;;5.28;;
26977;SDS011;56314;48.088;11.642;2023-09-08T10:48:42;5.88;;;5.25;;
26977;SDS011;56314;48.088;11.642;2023-09-08T10:51:12;6.20;;;5.05;;
26977;SDS011;56314;48.088;11.642;2023-09-08T10:53:39;5.47;;;4.97;;
26977;SDS011;56314;48.088;11.642;2023-09-08T10:56:05;6.55;;;5.53;;
26977;SDS011;56314;48.088;11.642;2023-09-08T10:58:34;5.30;;;4.90;;
26977;SDS011;56314;48.088;11.642;2023-09-08T11:01:03;6.22;;;5.05;;
26977;SDS011;56314;48.088;11.642;2023-09-08T11:06:07;7.43;;;6.13;;
26977;SDS011;56314;48.088;11.642;2023-09-08T11:08:33;6.53;;;5.32;;
26977;SDS011;56314;48.088;11.642;2023-09-08T11:11:00;5.80;;;5.00;;
26977;SDS011;56314;48.088;11.642;2023-09-08T11:13:26;5.95;;;5.35;;
26977;SDS011;56314;48.088;11.642;2023-09-08T11:15:53;9.07;;;5.07;;
26977;SDS011;56314;48.088;11.642;2023-09-08T11:20:53;6.10;;;5.57;;
26977;SDS011;56314;48.088;11.642;2023-09-08T11:23:22;7.85;;;6.63;;
26977;SDS011;56314;48.088;11.642;2023-09-08T11:25:49;6.15;;;5.55;;
26977;SDS011;56314;48.088;11.642;2023-09-08T11:28:15;8.80;;;5.97;;
26977;SDS011;56314;48.088;11.642;2023-09-08T11:30:41;6.72;;;5.68;;
26977;SDS011;56314;48.088;11.642;2023-09-08T11:33:17;6.63;;;6.03;;
26977;SDS011;56314;48.088;11.642;2023-09-08T11:35:46;7.15;;;5.93;;
26977;SDS011;56314;48.088;11.642;2023-09-08T11:38:11;6.00;;;5.40;;
26977;SDS011;56314;48.088;11.642;2023-09-08T11:40:37;6.95;;;5.28;;
26977;SDS011;56314;48.088;11.642;2023-09-08T11:43:04;6.05;;;5.13;;
26977;SDS011;56314;48.088;11.642;2023-09-08T11:45:31;7.38;;;5.25;;
26977;SDS011;56314;48.088;11.642;2023-09-08T11:47:59;8.85;;;5.15;;
26977;SDS011;56314;48.088;11.642;2023-09-08T11:50:25;6.80;;;5.80;;
26977;SDS011;56314;48.088;11.642;2023-09-08T11:52:51;9.00;;;6.95;;
26977;SDS011;56314;48.088;11.642;2023-09-08T11:55:17;6.43;;;5.78;;
26977;SDS011;56314;48.088;11.642;2023-09-08T11:57:46;6.40;;;5.60;;
26977;SDS011;56314;48.088;11.642;2023-09-08T12:00:13;6.30;;;5.53;;
26977;SDS011;56314;48.088;11.642;2023-09-08T12:02:42;7.47;;;5.53;;
26977;SDS011;56314;48.088;11.642;2023-09-08T12:05:20;7.15;;;6.07;;
26977;SDS011;56314;48.088;11.642;2023-09-08T12:07:50;6.45;;;5.80;;
26977;SDS011;56314;48.088;11.642;2023-09-08T12:10:17;7.28;;;6.20;;
26977;SDS011;56314;48.088;11.642;2023-09-08T12:12:44;11.10;;;6.65;;
26977;SDS011;56314;48.088;11.642;2023-09-08T12:15:09;7.35;;;6.18;;
26977;SDS011;56314;48.088;11.642;2023-09-08T12:17:46;8.73;;;6.60;;
26977;SDS011;56314;48.088;11.642;2023-09-08T12:20:13;7.40;;;6.68;;
26977;SDS011;56314;48.088;11.642;2023-09-08T12:22:46;8.18;;;6.07;;
26977;SDS011;56314;48.088;11.642;2023-09-08T12:27:38;7.87;;;6.47;;
26977;SDS011;56314;48.088;11.642;2023-09-08T12:30:04;8.27;;;6.22;;
26977;SDS011;56314;48.088;11.642;2023-09-08T12:32:30;8.55;;;5.93;;
26977;SDS011;56314;48.088;11.642;2023-09-08T12:34:57;8.38;;;6.57;;
26977;SDS011;56314;48.088;11.642;2023-09-08T12:37:24;6.88;;;6.15;;
26977;SDS011;56314;48.088;11.642;2023-09-08T12:39:52;6.47;;;5.20;;
26977;SDS011;56314;48.088;11.642;2023-09-08T12:42:18;7.05;;;6.35;;
26977;SDS011;56314;48.088;11.642;2023-09-08T12:44:44;6.43;;;5.68;;
26977;SDS011;56314;48.088;11.642;2023-09-08T12:47:10;6.95;;;6.30;;
26977;SDS011;56314;48.088;11.642;2023-09-08T12:49:39;9.85;;;6.18;;
26977;SDS011;56314;48.088;11.642;2023-09-08T12:52:05;7.72;;;5.72;;
26977;SDS011;56314;48.088;11.642;2023-09-08T12:54:31;7.43;;;5.90;;
26977;SDS011;56314;48.088;11.642;2023-09-08T12:56:56;6.97;;;6.18;;
26977;SDS011;56314;48.088;11.642;2023-09-08T12:59:21;12.82;;;10.75;;
26977;SDS011;56314;48.088;11.642;2023-09-08T13:01:47;10.85;;;6.80;;
26977;SDS011;56314;48.088;11.642;2023-09-08T13:04:12;7.75;;;5.68;;
26977;SDS011;56314;48.088;11.642;2023-09-08T13:06:37;7.00;;;6.13;;
26977;SDS011;56314;48.088;11.642;2023-09-08T13:09:03;7.60;;;6.78;;
26977;SDS011;56314;48.088;11.642;2023-09-08T13:11:28;6.50;;;5.90;;
26977;SDS011;56314;48.088;11.642;2023-09-08T13:13:53;9.57;;;6.80;;
26977;SDS011;56314;48.088;11.642;2023-09-08T13:16:19;7.10;;;6.22;;
26977;SDS011;56314;48.088;11.642;2023-09-08T13:18:44;7.25;;;6.20;;
26977;SDS011;56314;48.088;11.642;2023-09-08T13:21:10;9.63;;;5.97;;
26977;SDS011;56314;48.088;11.642;2023-09-08T13:23:36;7.47;;;6.00;;
26977;SDS011;56314;48.088;11.642;2023-09-08T13:26:01;7.78;;;5.57;;
26977;SDS011;56314;48.088;11.642;2023-09-08T13:28:26;7.43;;;5.95;;
26977;SDS011;56314;48.088;11.642;2023-09-08T13:30:52;7.47;;;5.63;;
26977;SDS011;56314;48.088;11.642;2023-09-08T13:33:17;6.72;;;5.82;;
26977;SDS011;56314;48.088;11.642;2023-09-08T13:35:42;6.45;;;5.53;;
26977;SDS011;56314;48.088;11.642;2023-09-08T13:38:08;9.48;;;6.00;;
26977;SDS011;56314;48.088;11.642;2023-09-08T13:40:33;7.20;;;5.95;;
26977;SDS011;56314;48.088;11.642;2023-09-08T13:42:58;6.35;;;5.72;;
26977;SDS011;56314;48.088;11.642;2023-09-08T13:45:25;6.65;;;5.50;;
26977;SDS011;56314;48.088;11.642;2023-09-08T13:47:50;7.15;;;5.95;;
26977;SDS011;56314;48.088;11.642;2023-09-08T13:50:16;7.80;;;6.22;;
26977;SDS011;56314;48.088;11.642;2023-09-08T13:52:41;8.88;;;5.53;;
26977;SDS011;56314;48.088;11.642;2023-09-08T13:55:07;10.70;;;5.28;;
26977;SDS011;56314;48.088;11.642;2023-09-08T13:57:32;7.80;;;6.22;;
26977;SDS011;56314;48.088;11.642;2023-09-08T13:59:58;6.15;;;5.53;;
26977;SDS011;56314;48.088;11.642;2023-09-08T14:02:23;7.60;;;6.18;;
26977;SDS011;56314;48.088;11.642;2023-09-08T14:04:49;7.57;;;6.00;;
26977;SDS011;56314;48.088;11.642;2023-09-08T14:07:14;8.75;;;5.60;;
26977;SDS011;56314;48.088;11.642;2023-09-08T14:09:40;10.15;;;6.13;;
26977;SDS011;56314;48.088;11.642;2023-09-08T14:12:05;10.77;;;5.57;;
26977;SDS011;56314;48.088;11.642;2023-09-08T14:14:31;6.50;;;5.88;;
26977;SDS011;56314;48.088;11.642;2023-09-08T14:16:56;8.10;;;6.18;;
26977;SDS011;56314;48.088;11.642;2023-09-08T14:19:21;7.20;;;6.32;;
26977;SDS011;56314;48.088;11.642;2023-09-08T14:21:47;9.27;;;6.50;;
26977;SDS011;56314;48.088;11.642;2023-09-08T14:24:12;7.63;;;5.28;;
26977;SDS011;56314;48.088;11.642;2023-09-08T14:26:37;6.13;;;5.38;;
26977;SDS011;56314;48.088;11.642;2023-09-08T14:29:03;7.72;;;6.10;;
26977;SDS011;56314;48.088;11.642;2023-09-08T14:31:29;6.75;;;6.10;;
26977;SDS011;56314;48.088;11.642;2023-09-08T14:33:54;6.75;;;5.90;;
26977;SDS011;56314;48.088;11.642;2023-09-08T14:36:20;7.45;;;6.00;;
26977;SDS011;56314;48.088;11.642;2023-09-08T14:38:46;8.50;;;6.28;;
26977;SDS011;56314;48.088;11.642;2023-09-08T14:41:11;5.75;;;5.18;;